Thatcher, Ohio
Current Conditions -  °F | °C
As of 8:14 PM on Tuesday 21 Oct 2014 (Local Time) from KRZT Reporting Station
Overcast Overcast  
Wind Chill: 41°   Ceiling: 3800
Heat Index: 46°   Visibility: 10mi
Dew Point: 41°   Wind: 10mph
Humidity: 81%   Direction: 360°N
Pressure: 30.12"   Gusts: NA
Location:  39.5752°N, 82.907°W
Report Text: KRZT 220014Z AUTO 36009KT 10SM OVC038 08/05 A3012 RMK AO2
Loading
Personal Weather Stations






























Interactive Weather Map
Tropical Storm Tracking
New forecast layout! Learn more

10-Day Weather Forecast

Advertisements
Track Severe Weather on mobile